Time;durP1;ratioP1;P1;durP2;ratioP2;P2;SDS_P1;SDS_P2;PMS_P1;PMS_P2;Temp;Humidity;BMP_temperature;BMP_pressure;BME280_temperature;BME280_humidity;BME280_pressure;Samples;Min_cycle;Max_cycle;Signal;HPM_P1;HPM_P2
2021/04/02 00:01:01;;;;;;;3.90;2.40;;;;;;;10.31;80.83;95255.53;1753946;82;21146;-68
2021/04/02 00:03:34;;;;;;;3.50;2.60;;;;;;;10.21;79.85;95253.97;1754086;82;21145;-68
2021/04/02 00:06:05;;;;;;;4.37;3.20;;;;;;;10.04;80.90;95249.06;1754377;81;21117;-68
2021/04/02 00:08:34;;;;;;;6.33;3.63;;;;;;;9.93;81.01;95239.23;1754183;82;21165;-68
2021/04/02 00:11:09;;;;;;;5.80;3.47;;;;;;;9.91;81.53;95236.61;1754022;81;21166;-68
2021/04/02 00:13:44;;;;;;;6.53;4.03;;;;;;;9.82;81.04;95228.89;1754065;81;21156;-68
2021/04/02 00:16:16;;;;;;;3.87;2.97;;;;;;;9.77;81.44;95220.67;1754085;82;21101;-68
2021/04/02 00:18:45;;;;;;;6.53;3.40;;;;;;;9.73;80.85;95208.89;1754082;82;21148;-68
2021/04/02 00:21:15;;;;;;;3.80;2.80;;;;;;;9.70;81.11;95210.28;1754062;82;21166;-68
2021/04/02 00:23:43;;;;;;;4.30;2.73;;;;;;;9.59;80.81;95207.45;1754393;82;21157;-68
2021/04/02 00:26:16;;;;;;;4.63;2.43;;;;;;;9.44;81.07;95217.39;1754002;81;21616;-68
2021/04/02 00:28:46;;;;;;;4.77;2.67;;;;;;;9.36;81.03;95221.95;1753996;82;21149;-68
2021/04/02 00:31:14;;;;;;;3.90;3.27;;;;;;;9.30;81.90;95215.50;1754371;81;21161;-68
2021/04/02 00:33:41;;;;;;;5.77;3.40;;;;;;;9.25;81.63;95213.41;1754400;82;21109;-68
2021/04/02 00:36:09;;;;;;;4.43;2.93;;;;;;;9.30;81.40;95199.25;1754073;82;21113;-68
2021/04/02 00:38:37;;;;;;;5.60;3.10;;;;;;;9.25;80.76;95192.35;1754360;81;21559;-68
2021/04/02 00:41:13;;;;;;;4.37;2.87;;;;;;;9.14;80.81;95182.47;1754039;82;21105;-68
2021/04/02 00:43:52;;;;;;;3.67;2.97;;;;;;;9.05;80.47;95172.55;1754042;81;21560;-68
2021/04/02 00:46:22;;;;;;;5.60;2.93;;;;;;;9.01;80.57;95168.22;1754389;81;21125;-68
2021/04/02 00:48:50;;;;;;;4.93;2.40;;;;;;;8.95;81.70;95167.50;1754134;81;21586;-68
2021/04/02 00:51:26;;;;;;;6.47;3.37;;;;;;;8.76;83.06;95158.61;1753995;82;21148;-68
2021/04/02 00:53:54;;;;;;;5.00;2.90;;;;;;;8.72;82.24;95154.33;1754208;81;21590;-68
2021/04/02 00:56:23;;;;;;;3.43;2.83;;;;;;;8.70;82.01;95144.73;1754081;81;21110;-68
2021/04/02 00:58:51;;;;;;;4.00;2.20;;;;;;;8.60;81.57;95140.08;1754259;81;21161;-68
2021/04/02 01:01:19;;;;;;;5.53;3.47;;;;;;;8.55;81.73;95131.41;1754249;82;21149;-68
2021/04/02 01:03:48;;;;;;;3.43;2.80;;;;;;;8.53;81.66;95123.53;1753906;82;21166;-68
2021/04/02 01:06:23;;;;;;;5.27;2.30;;;;;;;8.43;81.99;95121.52;1754261;81;21129;-68
2021/04/02 01:08:53;;;;;;;7.40;3.20;;;;;;;8.32;81.72;95108.98;1754160;82;21153;-68
2021/04/02 01:11:25;;;;;;;3.40;2.30;;;;;;;8.30;81.74;95113.40;1754159;82;21141;-68
2021/04/02 01:13:58;;;;;;;4.37;2.62;;;;;;;8.27;82.04;95101.63;1754435;81;21188;-68
2021/04/02 01:16:30;;;;;;;6.50;3.40;;;;;;;8.21;81.88;95096.05;1754190;81;21587;-68
2021/04/02 01:19:11;;;;;;;5.20;2.47;;;;;;;8.20;82.59;95093.43;1754171;82;21536;-68
2021/04/02 01:22:12;;;;;;;4.87;3.03;;;;;;;8.22;82.44;95086.39;1753652;82;21603;-68
2021/04/02 01:24:54;;;;;;;4.83;2.87;;;;;;;8.12;82.99;95087.45;1753789;82;21397;-68
2021/04/02 01:27:34;;;;;;;3.20;2.50;;;;;;;8.11;83.02;95077.81;1754138;81;21472;-68
2021/04/02 01:30:09;;;;;;;7.90;2.83;;;;;;;8.13;82.52;95072.95;1754480;81;21082;-68
2021/04/02 01:32:45;;;;;;;3.73;2.47;;;;;;;8.07;82.63;95066.50;1754151;82;21144;-68
2021/04/02 01:35:32;;;;;;;2.80;1.83;;;;;;;8.09;82.35;95067.77;1753903;82;21137;-68
2021/04/02 01:38:08;;;;;;;3.03;2.10;;;;;;;8.06;82.16;95062.13;1754316;82;21122;-68
2021/04/02 01:40:40;;;;;;;3.33;2.60;;;;;;;7.95;82.11;95056.20;1754174;81;21113;-68
2021/04/02 01:43:13;;;;;;;6.17;2.30;;;;;;;7.94;81.92;95052.71;1727159;82;21124;-68
2021/04/02 01:45:43;;;;;;;;;;;;;;;8.01;82.49;95056.08;1728877;82;21372;-68
2021/04/02 01:48:16;;;;;;;4.77;2.17;;;;;;;8.01;82.40;95054.77;1754230;82;20412;-68
2021/04/02 01:50:48;;;;;;;5.20;2.10;;;;;;;7.93;81.99;95050.09;1754445;82;21122;-68
2021/04/02 01:53:21;;;;;;;3.33;2.27;;;;;;;7.82;82.12;95045.03;1754314;82;21129;-68
2021/04/02 01:55:52;;;;;;;4.30;2.27;;;;;;;7.79;82.31;95042.02;1726892;82;21133;-68
2021/04/02 01:58:22;;;;;;;4.97;2.70;;;;;;;7.72;82.05;95039.06;1726823;82;21315;-68
2021/04/02 02:00:55;;;;;;;4.10;2.90;;;;;;;7.76;82.71;95032.88;1754201;82;21583;-68
2021/04/02 02:03:28;;;;;;;3.03;2.63;;;;;;;7.71;83.05;95035.14;1754174;82;21132;-68
2021/04/02 02:06:00;;;;;;;3.87;2.92;;;;;;;7.69;84.63;95043.06;1754345;82;21130;-68
2021/04/02 02:08:41;;;;;;;3.70;3.00;;;;;;;7.74;84.28;95033.80;1753016;82;21173;-68
2021/04/02 02:11:16;;;;;;;4.80;3.33;;;;;;;7.87;83.85;95045.83;1754285;82;21164;-68
2021/04/02 02:14:11;;;;;;;7.83;4.00;;;;;;;7.95;85.10;95040.44;1748136;81;21300;-68
2021/04/02 02:16:44;;;;;;;5.40;3.97;;;;;;;8.08;84.15;95049.83;1739932;82;21269;-68
2021/04/02 02:19:16;;;;;;;6.90;4.00;;;;;;;8.18;83.61;95052.71;1740384;82;21300;-68
2021/04/02 02:21:48;;;;;;;3.80;3.10;;;;;;;8.26;83.71;95036.80;1740202;82;21687;-67
2021/04/02 02:24:17;;;;;;;5.83;3.60;;;;;;;8.13;83.19;95047.13;1719553;82;21091;-67
2021/04/02 02:26:46;;;;;;;5.90;3.70;;;;;;;7.98;82.68;95046.95;1739984;82;21153;-68
2021/04/02 02:29:14;;;;;;;10.90;7.53;;;;;;;7.92;83.44;95053.63;1719078;82;21595;-68
2021/04/02 02:31:43;;;;;;;12.00;8.03;;;;;;;7.88;83.67;95047.55;1740217;82;21683;-68
2021/04/02 02:34:11;;;;;;;6.87;3.97;;;;;;;7.92;83.91;95045.75;1740342;82;21170;-68
2021/04/02 02:36:41;;;;;;;7.23;4.60;;;;;;;7.91;84.34;95043.58;1740115;82;21095;-68
2021/04/02 02:39:13;;;;;;;8.73;4.37;;;;;;;7.88;84.51;95038.35;1740167;81;21280;-68
2021/04/02 02:41:44;;;;;;;8.53;5.00;;;;;;;7.90;83.89;95033.94;1740120;82;21268;-68
2021/04/02 02:44:13;;;;;;;6.13;3.90;;;;;;;7.99;83.61;95032.94;1740194;82;21138;-68
2021/04/02 02:46:42;;;;;;;7.50;4.20;;;;;;;8.03;83.16;95031.97;1740359;82;21264;-68
2021/04/02 02:49:15;;;;;;;6.40;2.90;;;;;;;8.08;82.93;95038.01;1740146;82;21283;-68
2021/04/02 02:51:46;;;;;;;4.20;3.17;;;;;;;8.10;82.88;95027.03;1740146;82;21679;-68
2021/04/02 02:54:18;;;;;;;4.70;3.40;;;;;;;8.10;82.99;95021.77;1740421;82;21149;-68
2021/04/02 02:56:51;;;;;;;6.53;3.98;;;;;;;8.12;83.95;95025.24;1740316;82;21256;-68
2021/04/02 02:59:24;;;;;;;5.03;3.15;;;;;;;8.13;83.37;95028.28;1740477;82;21296;-68
2021/04/02 03:01:54;;;;;;;5.40;3.77;;;;;;;8.16;84.95;95024.73;1740155;81;21126;-68
2021/04/02 03:04:24;;;;;;;9.97;7.00;;;;;;;8.20;83.60;95026.42;1740261;82;21296;-68
2021/04/02 03:06:53;;;;;;;8.43;3.73;;;;;;;8.16;85.21;95033.92;1721710;82;21153;-68
2021/04/02 03:09:23;;;;;;;11.87;7.97;;;;;;;8.20;84.68;95033.84;1740125;81;21272;-68
2021/04/02 03:11:52;;;;;;;5.40;3.70;;;;;;;8.17;86.08;95044.42;1740020;82;21186;-68
2021/04/02 03:14:22;;;;;;;4.97;4.20;;;;;;;8.25;85.05;95053.48;1744704;81;21168;-68
2021/04/02 03:16:54;;;;;;;15.00;9.13;;;;;;;8.36;86.00;95072.53;1748216;82;21130;-68
2021/04/02 03:19:25;;;;;;;9.33;6.07;;;;;;;8.39;85.15;95098.83;1748506;82;21142;-68
2021/04/02 03:21:57;;;;;;;8.43;5.45;;;;;;;8.38;86.21;95086.98;1747542;82;21166;-68
2021/04/02 03:24:36;;;;;;;12.17;7.77;;;;;;;8.42;86.23;95081.67;1746628;82;21157;-68
2021/04/02 03:27:07;;;;;;;14.23;7.67;;;;;;;8.52;86.16;95014.47;1718809;82;21550;-68
2021/04/02 03:29:35;;;;;;;6.67;4.60;;;;;;;8.63;86.00;95014.64;1748332;82;21153;-68
2021/04/02 03:32:10;;;;;;;11.60;7.37;;;;;;;8.65;86.06;95039.16;1748256;82;21583;-68
2021/04/02 03:34:40;;;;;;;13.90;7.13;;;;;;;8.70;86.58;95035.58;1719032;82;21133;-68
2021/04/02 03:37:11;;;;;;;16.13;9.97;;;;;;;8.77;86.03;95019.64;1748364;82;21167;-68
2021/04/02 03:39:44;;;;;;;16.75;10.98;;;;;;;8.65;87.67;94926.07;1743356;82;21102;-68
2021/04/02 03:42:16;;;;;;;16.62;9.55;;;;;;;8.72;88.05;94924.61;1748340;82;21175;-68
2021/04/02 03:44:47;;;;;;;13.33;8.93;;;;;;;8.82;88.09;94960.33;1748290;81;21137;-68
2021/04/02 03:47:20;;;;;;;17.43;11.90;;;;;;;8.89;87.36;94918.52;1748375;82;21524;-68
2021/04/02 03:49:51;;;;;;;14.55;9.78;;;;;;;9.00;86.85;94919.61;1748126;82;21137;-68
2021/04/02 03:52:31;;;;;;;14.10;8.27;;;;;;;9.05;86.17;94914.65;1748259;82;21126;-68
2021/04/02 03:55:01;;;;;;;14.87;8.73;;;;;;;9.06;85.74;94908.47;1748604;82;21121;-68
2021/04/02 03:57:30;;;;;;;14.20;8.77;;;;;;;9.09;85.41;94904.44;1748173;82;21149;-68
2021/04/02 04:00:04;;;;;;;13.60;9.03;;;;;;;9.10;85.14;94896.98;1743655;82;21106;-68
2021/04/02 04:02:34;;;;;;;14.03;9.23;;;;;;;9.12;84.89;94898.23;1746788;82;21157;-68
2021/04/02 04:05:05;;;;;;;13.63;9.80;;;;;;;9.05;84.46;94918.59;1718744;82;21153;-67
2021/04/02 04:07:34;;;;;;;13.50;9.40;;;;;;;9.00;84.47;94913.03;1748163;82;21126;-67
2021/04/02 04:10:04;;;;;;;17.07;11.73;;;;;;;8.97;84.50;94917.92;1748284;82;21142;-68
2021/04/02 04:12:36;;;;;;;15.27;11.23;;;;;;;8.93;84.46;94925.91;1748152;82;21174;-68
2021/04/02 04:15:09;;;;;;;15.80;10.33;;;;;;;8.88;84.89;94926.87;1742245;81;21114;-68
2021/04/02 04:17:41;;;;;;;13.60;9.95;;;;;;;8.89;84.72;94932.98;1739820;82;21145;-68
2021/04/02 04:20:14;;;;;;;15.13;10.57;;;;;;;8.91;84.49;94933.83;1743877;81;21132;-68
2021/04/02 04:22:47;;;;;;;15.50;11.67;;;;;;;8.93;84.26;94945.64;1741923;82;21134;-67
2021/04/02 04:25:18;;;;;;;18.73;10.83;;;;;;;8.88;84.35;94941.34;1740196;82;21268;-68
2021/04/02 04:27:46;;;;;;;16.73;11.30;;;;;;;8.89;84.25;94947.45;1739809;82;21268;-68
2021/04/02 04:30:16;;;;;;;15.37;11.40;;;;;;;8.86;84.32;94951.02;1740167;82;21738;-67
2021/04/02 04:32:44;;;;;;;15.67;11.67;;;;;;;8.82;84.35;94953.33;1740247;82;21153;-67
2021/04/02 04:35:16;;;;;;;16.00;11.70;;;;;;;8.83;84.25;94951.55;1740092;82;21292;-68
2021/04/02 04:37:46;;;;;;;23.80;14.30;;;;;;;8.86;84.22;94964.63;1740278;82;21288;-68
2021/04/02 04:40:18;;;;;;;19.43;11.43;;;;;;;8.89;84.04;94963.24;1740302;82;21279;-68
2021/04/02 04:42:47;;;;;;;19.13;10.87;;;;;;;8.87;84.32;94969.02;1739900;82;21260;-67
2021/04/02 04:45:21;;;;;;;23.43;13.70;;;;;;;8.86;84.21;94979.11;1740073;82;21138;-68
2021/04/02 04:47:49;;;;;;;20.02;12.73;;;;;;;8.85;84.58;94990.54;1740475;82;21268;-68
2021/04/02 04:50:18;;;;;;;21.47;12.70;;;;;;;8.86;84.61;95006.27;1740060;82;21283;-68
2021/04/02 04:53:02;;;;;;;15.83;10.43;;;;;;;8.93;84.71;95004.84;1743801;82;21147;-68
2021/04/02 04:55:32;;;;;;;17.77;12.17;;;;;;;9.00;84.36;95003.36;1735855;82;21316;-68
2021/04/02 04:58:02;;;;;;;21.20;12.57;;;;;;;9.04;84.23;94998.88;1740449;82;21131;-68
2021/04/02 05:00:31;;;;;;;20.33;14.00;;;;;;;9.14;84.17;95003.49;1740684;81;21121;-68
2021/04/02 05:03:01;;;;;;;21.97;14.57;;;;;;;9.19;84.23;94998.53;1740200;82;21288;-68
2021/04/02 05:05:39;;;;;;;15.03;11.90;;;;;;;9.27;84.12;94999.67;1743849;81;21126;-67
2021/04/02 05:08:16;;;;;;;22.30;13.10;;;;;;;9.32;84.67;95004.38;1740222;81;21153;-68
2021/04/02 05:10:47;;;;;;;21.83;13.80;;;;;;;9.39;84.12;95011.23;1739077;82;21110;-68
2021/04/02 05:13:19;;;;;;;20.60;12.67;;;;;;;9.49;83.99;95001.36;1740040;82;21095;-68
2021/04/02 05:15:49;;;;;;;21.57;13.23;;;;;;;9.59;83.97;95007.27;1752914;81;21157;-68
2021/04/02 05:18:17;;;;;;;18.60;13.33;;;;;;;9.71;83.77;95011.79;1754393;81;21141;-68
2021/04/02 05:20:46;;;;;;;21.37;13.20;;;;;;;9.84;83.49;95014.98;1754113;82;21173;-68
2021/04/02 05:23:16;;;;;;;20.00;13.57;;;;;;;9.97;83.17;95015.08;1754009;82;21197;-68
2021/04/02 05:25:45;;;;;;;24.97;13.63;;;;;;;10.10;82.80;95012.13;1754654;82;21279;-68
2021/04/02 05:28:13;;;;;;;21.23;13.37;;;;;;;10.22;82.53;95010.50;1754397;82;21291;-68
2021/04/02 05:30:41;;;;;;;23.07;12.53;;;;;;;10.37;82.54;95011.43;1754156;82;21127;-68
2021/04/02 05:33:09;;;;;;;23.27;14.23;;;;;;;10.49;81.87;95015.52;1754498;82;21145;-68
2021/04/02 05:35:37;;;;;;;17.13;12.67;;;;;;;10.59;81.07;95021.41;1754236;81;21149;-68
2021/04/02 05:38:05;;;;;;;18.53;13.50;;;;;;;10.63;80.79;95020.86;1754305;81;21144;-68
2021/04/02 05:40:35;;;;;;;18.50;12.50;;;;;;;10.64;80.26;95024.78;1754407;82;21279;-68
2021/04/02 05:43:35;;;;;;;17.70;13.07;;;;;;;10.59;79.99;95026.22;1754395;82;21106;-68
2021/04/02 05:46:04;;;;;;;21.90;13.80;;;;;;;10.57;80.26;95026.72;1752800;82;21184;-68
2021/04/02 05:48:33;;;;;;;18.63;13.67;;;;;;;10.51;80.17;95032.17;1754484;82;21153;-68
2021/04/02 05:51:00;;;;;;;26.07;14.20;;;;;;;10.49;80.45;95041.03;1754237;81;21600;-68
2021/04/02 05:53:30;;;;;;;23.57;15.17;;;;;;;10.47;80.24;95046.80;1754391;82;21102;-68
2021/04/02 05:56:02;;;;;;;28.10;19.27;;;;;;;10.43;80.56;95039.86;1754323;82;21172;-68
2021/04/02 05:58:31;;;;;;;27.87;15.93;;;;;;;10.38;80.50;95038.23;1754239;81;21137;-68
2021/04/02 06:01:02;;;;;;;24.57;16.47;;;;;;;10.31;80.17;95040.62;1754389;82;21141;-68
2021/04/02 06:03:31;;;;;;;25.90;16.43;;;;;;;10.32;80.26;95046.29;1754213;81;21152;-68
2021/04/02 06:06:01;;;;;;;23.03;15.93;;;;;;;10.37;80.36;95048.35;1754040;82;21129;-68
2021/04/02 06:08:31;;;;;;;23.33;16.07;;;;;;;10.48;80.71;95045.45;1754361;81;21149;-68
2021/04/02 06:11:01;;;;;;;25.87;16.03;;;;;;;10.57;80.08;95043.86;1754444;82;21141;-68
2021/04/02 06:13:29;;;;;;;24.80;16.17;;;;;;;10.71;79.99;95038.22;1754230;82;21106;-68
2021/04/02 06:15:57;;;;;;;28.03;16.70;;;;;;;10.81;79.80;95038.38;1754364;81;21157;-68
2021/04/02 06:18:27;;;;;;;24.60;16.33;;;;;;;10.86;78.98;95034.28;1754378;82;21162;-68
2021/04/02 06:20:57;;;;;;;22.47;15.83;;;;;;;10.95;78.63;95032.67;1754127;81;21125;-68
2021/04/02 06:23:30;;;;;;;21.07;15.73;;;;;;;11.07;77.91;95042.48;1754370;81;21571;-68
2021/04/02 06:26:05;;;;;;;23.63;16.47;;;;;;;11.17;78.01;95043.48;1751444;81;21125;-68
2021/04/02 06:28:37;;;;;;;23.57;16.07;;;;;;;11.32;78.25;95045.27;1751363;81;21143;-68
2021/04/02 06:31:12;;;;;;;27.10;18.13;;;;;;;11.48;77.58;95046.05;1754492;81;21558;-68
2021/04/02 06:33:51;;;;;;;23.60;16.90;;;;;;;11.66;76.59;95042.42;1754435;82;21125;-68
2021/04/02 06:36:26;;;;;;;26.67;17.10;;;;;;;11.69;76.24;95041.89;1754480;81;21127;-68
2021/04/02 06:39:02;;;;;;;24.50;17.80;;;;;;;11.76;76.02;95035.07;1754210;81;21597;-68
2021/04/02 06:41:35;;;;;;;28.67;19.60;;;;;;;11.74;75.40;95044.36;1754030;81;21129;-68
2021/04/02 06:44:06;;;;;;;29.92;17.87;;;;;;;11.83;75.22;95043.22;1754337;81;21129;-68
2021/04/02 06:46:39;;;;;;;23.67;18.07;;;;;;;11.90;74.91;95052.72;1754587;81;21161;-68
2021/04/02 06:49:19;;;;;;;24.67;18.00;;;;;;;11.86;73.72;95053.25;1753875;81;21154;-68
2021/04/02 06:51:50;;;;;;;25.97;18.70;;;;;;;11.88;73.83;95053.22;1754359;82;21153;-68
2021/04/02 06:54:23;;;;;;;;;;;;;;;11.73;73.37;95051.03;1757087;82;21121;-68
2021/04/02 06:57:07;;;;;;;21.93;16.07;;;;;;;11.79;73.66;95052.14;1754265;82;20137;-68
2021/04/02 06:59:36;;;;;;;24.03;17.10;;;;;;;11.75;73.52;95048.75;1754498;82;21126;-68
2021/04/02 07:02:05;;;;;;;26.83;18.27;;;;;;;11.77;74.37;95051.33;1754398;81;21122;-68
2021/04/02 07:04:34;;;;;;;24.57;17.53;;;;;;;11.85;74.52;95053.30;1754346;82;21602;-68
2021/04/02 07:07:04;;;;;;;25.37;18.60;;;;;;;11.84;73.02;95058.15;1754243;81;21607;-68
2021/04/02 07:09:38;;;;;;;27.40;18.13;;;;;;;11.97;73.13;95059.97;1754256;82;21180;-68
2021/04/02 07:12:09;;;;;;;29.53;19.87;;;;;;;11.96;73.71;95062.22;1754079;81;21133;-68
2021/04/02 07:14:39;;;;;;;31.27;21.97;;;;;;;11.83;72.97;95060.40;1754065;81;21181;-68
2021/04/02 07:17:07;;;;;;;29.97;18.03;;;;;;;11.75;73.30;95066.39;1751394;82;21569;-68
2021/04/02 07:19:36;;;;;;;28.67;18.50;;;;;;;11.60;73.39;95068.59;1754185;81;21140;-68
2021/04/02 07:22:05;;;;;;;24.23;17.77;;;;;;;11.54;73.77;95069.23;1754193;82;21519;-68
2021/04/02 07:24:34;;;;;;;30.93;19.57;;;;;;;11.53;73.63;95071.02;1754274;82;21169;-68
2021/04/02 07:27:02;;;;;;;22.37;17.23;;;;;;;11.61;73.86;95073.41;1753931;81;21141;-68
2021/04/02 07:29:30;;;;;;;24.93;18.73;;;;;;;11.71;73.82;95074.86;1726353;82;21126;-68
2021/04/02 07:31:58;;;;;;;28.87;18.23;;;;;;;11.81;74.69;95081.58;1754204;81;21133;-68
2021/04/02 07:34:26;;;;;;;20.27;15.70;;;;;;;11.90;73.84;95078.69;1754138;81;21117;-68
2021/04/02 07:36:55;;;;;;;24.53;18.57;;;;;;;12.03;73.14;95084.45;1754267;82;21516;-68
2021/04/02 07:39:24;;;;;;;28.73;19.67;;;;;;;12.10;72.33;95088.62;1754330;82;21129;-68
2021/04/02 07:41:53;;;;;;;24.57;16.23;;;;;;;12.13;71.78;95088.52;1754274;81;21133;-68
2021/04/02 07:44:21;;;;;;;21.63;15.37;;;;;;;12.12;71.99;95090.77;1754133;81;21157;-68
2021/04/02 07:47:07;;;;;;;19.53;13.93;;;;;;;12.19;72.06;95094.52;1751452;81;21568;-68
2021/04/02 07:49:54;;;;;;;17.43;11.87;;;;;;;12.20;71.66;95090.98;1754108;82;21149;-68
2021/04/02 07:52:31;;;;;;;23.33;15.67;;;;;;;12.12;70.24;95092.09;1754281;82;21121;-68
2021/04/02 07:55:18;;;;;;;23.40;15.90;;;;;;;12.10;70.16;95092.59;1754234;82;21555;-68
2021/04/02 07:58:00;;;;;;;17.63;13.50;;;;;;;12.32;69.74;95091.44;1754140;81;21102;-68
2021/04/02 08:00:32;;;;;;;17.63;13.40;;;;;;;12.61;69.24;95091.36;1754317;81;21540;-68
2021/04/02 08:03:17;;;;;;;22.60;12.35;;;;;;;12.97;69.05;95087.39;1754497;82;21547;-68
2021/04/02 08:06:00;;;;;;;15.47;13.27;;;;;;;13.13;67.18;95090.38;1754389;81;21535;-68
2021/04/02 08:08:42;;;;;;;17.80;14.20;;;;;;;13.08;66.89;95091.43;1754123;82;21110;-68
2021/04/02 08:11:27;;;;;;;18.00;12.17;;;;;;;12.86;66.52;95096.66;1754504;82;21138;-68
2021/04/02 08:14:02;;;;;;;20.70;13.97;;;;;;;12.64;66.98;95109.30;1754074;82;21157;-68
2021/04/02 08:16:55;;;;;;;15.57;11.40;;;;;;;12.44;68.09;95107.33;1706051;83;21193;-68
2021/04/02 08:19:32;;;;;;;25.57;19.27;;;;;;;12.36;67.99;95101.91;1705113;83;21157;-68
2021/04/02 08:22:14;;;;;;;18.60;14.20;;;;;;;12.30;68.10;95099.87;1693863;84;21106;-68
2021/04/02 08:24:46;;;;;;;17.00;12.20;;;;;;;12.20;68.97;95105.53;1700036;84;21142;-68
2021/04/02 08:27:17;;;;;;;15.93;12.67;;;;;;;12.05;69.74;95113.03;1699980;84;21651;-68
2021/04/02 08:30:01;;;;;;;15.73;12.23;;;;;;;11.99;69.50;95117.64;1700316;84;21138;-68
2021/04/02 08:32:17;;;;;;;18.80;12.90;;;;;;;11.91;70.42;95108.16;1697837;84;21157;-68
2021/04/02 08:34:46;;;;;;;16.07;11.90;;;;;;;11.85;71.00;95120.70;1700144;84;21591;-68
2021/04/02 08:37:16;;;;;;;18.83;12.03;;;;;;;11.70;71.91;95129.95;1700015;84;21169;-68
2021/04/02 08:39:44;;;;;;;16.37;11.17;;;;;;;11.55;73.42;95123.36;1700065;84;21150;-68
2021/04/02 08:42:12;;;;;;;13.07;7.50;;;;;;;11.37;75.43;95128.73;1700263;84;21579;-68
2021/04/02 08:44:43;;;;;;;9.27;5.63;;;;;;;11.11;75.38;95130.77;1700305;84;21118;-68
2021/04/02 08:47:15;;;;;;;7.63;5.77;;;;;;;10.91;75.75;95126.50;1700165;84;21576;-68
2021/04/02 08:49:48;;;;;;;9.17;6.37;;;;;;;10.88;74.85;95125.28;1700257;84;21145;-68
2021/04/02 08:52:18;;;;;;;8.63;6.42;;;;;;;10.88;74.93;95130.55;1700460;84;21150;-68
2021/04/02 08:54:56;;;;;;;12.20;8.07;;;;;;;10.96;74.38;95135.16;1700215;84;21142;-68
2021/04/02 08:57:28;;;;;;;12.07;9.03;;;;;;;11.11;74.93;95136.52;1700185;84;21165;-68
2021/04/02 08:59:56;;;;;;;12.53;8.20;;;;;;;11.21;75.74;95137.56;1700094;84;21608;-68
2021/04/02 09:02:30;;;;;;;13.43;9.13;;;;;;;11.27;75.90;95136.52;1700118;84;21167;-68
2021/04/02 09:05:02;;;;;;;15.80;10.00;;;;;;;11.32;76.61;95131.10;1700215;84;21141;-68
2021/04/02 09:07:41;;;;;;;14.83;10.63;;;;;;;11.42;76.20;95136.06;1704996;84;21149;-68
2021/04/02 09:10:17;;;;;;;13.80;9.67;;;;;;;11.69;76.14;95134.81;1704628;84;21130;-68
2021/04/02 09:12:48;;;;;;;19.20;12.33;;;;;;;12.04;78.59;95135.55;1700039;84;21196;-68
2021/04/02 09:15:23;;;;;;;15.83;10.83;;;;;;;12.33;77.45;95128.87;1701301;83;21161;-68
2021/04/02 09:17:51;;;;;;;17.73;12.30;;;;;;;12.74;75.90;95125.73;1715406;84;21148;-68
2021/04/02 09:20:19;;;;;;;15.83;12.07;;;;;;;13.16;75.33;95119.39;1705816;84;21176;-68
2021/04/02 09:22:47;;;;;;;51.43;31.37;;;;;;;13.31;74.60;95118.47;1715373;84;21294;-68
2021/04/02 09:25:21;;;;;;;22.33;16.03;;;;;;;13.60;76.44;95111.59;1705601;84;21165;-68
2021/04/02 09:27:49;;;;;;;25.43;16.65;;;;;;;14.03;74.37;95117.02;1715350;83;21152;-68
2021/04/02 09:30:25;;;;;;;21.37;17.03;;;;;;;14.14;70.90;95117.94;1705612;84;21161;-68
2021/04/02 09:32:54;;;;;;;14.20;11.47;;;;;;;13.96;69.89;95122.16;1715629;83;21133;-68
2021/04/02 09:35:21;;;;;;;13.60;10.87;;;;;;;13.66;69.93;95131.72;1705803;84;21153;-68
2021/04/02 09:37:51;;;;;;;15.27;9.63;;;;;;;13.34;70.82;95141.73;1712529;84;21189;-68
2021/04/02 09:40:19;;;;;;;7.03;5.53;;;;;;;13.00;72.26;95148.65;1705720;84;21160;-68
2021/04/02 09:42:48;;;;;;;11.63;6.60;;;;;;;12.48;68.53;95151.77;1715331;84;21286;-68
2021/04/02 09:45:17;;;;;;;8.83;6.30;;;;;;;12.12;69.90;95154.23;1705592;84;21165;-69
2021/04/02 09:47:49;;;;;;;7.73;5.50;;;;;;;11.92;70.89;95157.97;1715254;84;21617;-69
2021/04/02 09:50:18;;;;;;;7.30;4.97;;;;;;;11.68;72.71;95172.73;1705406;84;21327;-69
2021/04/02 09:52:47;;;;;;;7.10;4.30;;;;;;;11.30;73.50;95159.33;1715213;84;21164;-69
2021/04/02 09:55:16;;;;;;;7.80;6.27;;;;;;;11.10;74.41;95151.50;1705756;84;21125;-68
2021/04/02 09:57:45;;;;;;;21.73;16.27;;;;;;;11.04;75.96;95156.96;1714716;84;21109;-68
2021/04/02 10:00:15;;;;;;;14.53;11.67;;;;;;;11.02;74.80;95150.85;1705714;84;21177;-68
2021/04/02 10:02:43;;;;;;;16.93;7.40;;;;;;;10.96;75.39;95150.58;1715399;84;21291;-68
2021/04/02 10:05:12;;;;;;;16.73;10.40;;;;;;;10.88;76.05;95143.75;1705500;84;21607;-68
2021/04/02 10:07:40;;;;;;;22.00;14.23;;;;;;;10.83;77.02;95139.48;1715188;84;21145;-68
2021/04/02 10:10:09;;;;;;;14.00;9.13;;;;;;;10.82;78.42;95140.83;1705676;84;21149;-68
2021/04/02 10:12:39;;;;;;;16.33;10.13;;;;;;;10.87;77.96;95139.39;1715506;84;21323;-68
2021/04/02 10:15:09;;;;;;;16.70;10.43;;;;;;;10.88;78.59;95143.30;1705560;83;21570;-68
2021/04/02 10:17:37;;;;;;;17.00;11.27;;;;;;;11.04;78.72;95134.06;1715567;84;21109;-68
2021/04/02 10:20:07;;;;;;;12.90;9.47;;;;;;;11.44;79.13;95134.68;1705698;84;21161;-68
2021/04/02 10:22:34;;;;;;;14.47;9.40;;;;;;;12.08;79.78;95130.11;1715502;84;21145;-68
2021/04/02 10:25:03;;;;;;;13.53;7.40;;;;;;;12.82;77.78;95128.13;1705726;84;21153;-68
2021/04/02 10:27:31;;;;;;;12.43;7.00;;;;;;;13.22;73.49;95111.67;1715527;84;21149;-68
2021/04/02 10:29:58;;;;;;;10.93;6.90;;;;;;;13.40;72.89;95114.13;1705696;84;21611;-68
2021/04/02 10:32:26;;;;;;;17.50;9.70;;;;;;;13.55;73.08;95116.67;1715339;84;21117;-68
2021/04/02 10:34:54;;;;;;;13.33;7.40;;;;;;;13.39;70.30;95107.97;1706031;84;21591;-68
2021/04/02 10:37:22;;;;;;;10.43;7.40;;;;;;;13.66;70.20;95108.30;1716008;84;21157;-68
2021/04/02 10:39:49;;;;;;;12.07;7.30;;;;;;;13.93;70.49;95101.92;1705502;84;21169;-68
2021/04/02 10:42:17;;;;;;;8.00;6.53;;;;;;;14.04;68.30;95103.70;1715475;84;21294;-68
2021/04/02 10:44:45;;;;;;;10.73;7.13;;;;;;;14.03;68.59;95099.30;1705455;84;21145;-68
2021/04/02 10:47:12;;;;;;;12.13;6.97;;;;;;;14.07;68.79;95099.59;1715267;84;21168;-68
2021/04/02 10:49:40;;;;;;;15.30;9.37;;;;;;;14.02;69.11;95102.90;1705597;84;21165;-68
2021/04/02 10:52:09;;;;;;;14.67;9.80;;;;;;;13.80;66.18;95104.20;1715549;84;21559;-68
2021/04/02 10:54:36;;;;;;;43.83;27.17;;;;;;;13.56;67.19;95114.45;1705626;84;21164;-68
2021/04/02 10:57:05;;;;;;;23.63;15.53;;;;;;;13.27;69.56;95115.52;1715327;83;21145;-68
2021/04/02 10:59:33;;;;;;;15.43;9.20;;;;;;;13.23;69.84;95110.77;1705747;84;21156;-68
2021/04/02 11:02:02;;;;;;;9.83;7.77;;;;;;;13.20;70.89;95101.16;1715355;84;21275;-68
2021/04/02 11:04:30;;;;;;;13.17;8.47;;;;;;;13.13;70.63;95100.11;1705981;84;21170;-68
2021/04/02 11:06:57;;;;;;;12.90;8.57;;;;;;;13.09;69.44;95097.16;1715218;84;21153;-68
2021/04/02 11:09:29;;;;;;;12.03;8.50;;;;;;;13.03;69.43;95089.41;1705966;84;21161;-68
2021/04/02 11:11:56;;;;;;;15.53;9.63;;;;;;;13.45;71.99;95087.47;1715336;84;21153;-68
2021/04/02 11:14:24;;;;;;;11.80;8.13;;;;;;;13.84;69.03;95088.58;1705587;84;21595;-68
2021/04/02 11:16:52;;;;;;;10.97;6.40;;;;;;;13.95;69.59;95083.31;1722131;83;21172;-68
2021/04/02 11:19:19;;;;;;;11.33;6.77;;;;;;;13.93;67.81;95078.05;1696917;84;21322;-68
2021/04/02 11:21:47;;;;;;;7.67;5.60;;;;;;;14.18;68.79;95075.28;1696883;84;21577;-68
2021/04/02 11:24:14;;;;;;;9.23;6.13;;;;;;;14.95;66.39;95065.43;1696931;84;21192;-68
2021/04/02 11:26:42;;;;;;;12.30;4.67;;;;;;;15.69;64.84;95060.30;1697110;84;21160;-68
2021/04/02 11:29:09;;;;;;;6.63;4.63;;;;;;;16.28;58.53;95061.03;1696876;84;21178;-68
2021/04/02 11:31:37;;;;;;;8.55;4.45;;;;;;;16.94;56.91;95048.86;1696884;84;21191;-68
2021/04/02 11:34:04;;;;;;;7.42;4.33;;;;;;;17.22;51.05;95045.11;1696832;84;21299;-68
2021/04/02 11:36:31;;;;;;;12.65;5.47;;;;;;;17.69;48.90;95044.34;1696938;84;21179;-68
2021/04/02 11:39:00;;;;;;;7.75;4.08;;;;;;;18.19;49.80;95045.13;1696958;84;21713;-68
2021/04/02 11:41:27;;;;;;;11.33;5.12;;;;;;;17.82;48.29;95046.37;1697151;84;21176;-68
2021/04/02 11:43:55;;;;;;;8.78;5.83;;;;;;;17.34;48.16;95049.38;1696592;84;21306;-68
2021/04/02 11:46:22;;;;;;;14.73;5.70;;;;;;;16.74;49.55;95058.70;1696796;84;21649;-68
2021/04/02 11:48:50;;;;;;;16.37;9.45;;;;;;;16.20;51.07;95063.18;1696848;84;21137;-68